Terminal Aerodrome Forecast
Issued by NWS Sioux Falls, SD

Home | Current Version | Previous Version | Graphics & Text | Print | Product List | Glossary On
Versions: 1 2 3 4 5 6 7 8 9 10 11 12 13 14 15 16
000
FTUS43 KFSD 190520
TAFHON
TAF
KHON 190520Z 1906/2006 VRB04KT 3SM BR SCT010 OVC022
      TEMPO 1906/1908 1 1/2SM -DZ BR OVC010
     FM190800 31010KT 4SM -SHRA OVC012
     FM191000 33013G19KT P6SM OVC018
     FM191400 33018G27KT P6SM BKN025
     FM191600 33024G34KT P6SM SCT045
     FM200100 33013G20KT P6SM SKC=

USA.gov is the U.S. government's official web portal to all federal, state and local government web resources and services.